Terminal Aerodrome Forecast
Issued by NWS

Home | Current Version | Previous Version | Text Only | Print | Product List | Glossary On
Versions: 1 2 3 4 5 6 7 8 9 10 11 12 13 14 15 16 17 18 19 20 21 22 23 24 25
000
FTUS41 KPBZ 201500 AAB
TAFAGC
TAF AMD
KAGC 201528Z 2015/2112 12008KT P6SM FEW002 BKN070 OVC100
     FM201800 22010KT P6SM VCTS BKN040CB
     FM210200 23004KT P6SM SCT040
     FM210700 VRB03KT 4SM BR SCT040=

USA.gov is the U.S. government's official web portal to all federal, state and local government web resources and services.